sensor_id;sensor_type;location;lat;lon;timestamp;pressure;altitude;pressure_sealevel;temperature;humidity
18509;BME280;9383;50.928;12.116;2023-06-26T00:01:59;98870.53;;;16.41;95.69
18509;BME280;9383;50.928;12.116;2023-06-26T00:04:26;98863.47;;;16.40;95.82
18509;BME280;9383;50.928;12.116;2023-06-26T00:06:53;98864.44;;;16.39;95.82
18509;BME280;9383;50.928;12.116;2023-06-26T00:09:20;98856.53;;;16.38;95.76
18509;BME280;9383;50.928;12.116;2023-06-26T00:11:49;98860.22;;;16.35;95.81
18509;BME280;9383;50.928;12.116;2023-06-26T00:14:16;98858.50;;;16.34;96.06
18509;BME280;9383;50.928;12.116;2023-06-26T00:16:48;98856.88;;;16.31;96.25
18509;BME280;9383;50.928;12.116;2023-06-26T00:19:20;98849.81;;;16.30;96.16
18509;BME280;9383;50.928;12.116;2023-06-26T00:21:49;98850.00;;;16.27;96.06
18509;BME280;9383;50.928;12.116;2023-06-26T00:24:18;98844.03;;;16.22;96.13
18509;BME280;9383;50.928;12.116;2023-06-26T00:26:48;98846.06;;;16.19;96.38
18509;BME280;9383;50.928;12.116;2023-06-26T00:29:18;98846.22;;;16.15;96.29
18509;BME280;9383;50.928;12.116;2023-06-26T00:31:47;98850.03;;;16.11;96.46
18509;BME280;9383;50.928;12.116;2023-06-26T00:34:17;98852.16;;;16.06;96.64
18509;BME280;9383;50.928;12.116;2023-06-26T00:36:46;98852.31;;;16.03;96.84
18509;BME280;9383;50.928;12.116;2023-06-26T00:39:15;98849.91;;;15.98;96.59
18509;BME280;9383;50.928;12.116;2023-06-26T00:41:44;98851.91;;;15.95;96.71
18509;BME280;9383;50.928;12.116;2023-06-26T00:44:13;98850.44;;;15.89;96.98
18509;BME280;9383;50.928;12.116;2023-06-26T00:46:42;98850.50;;;15.87;97.05
18509;BME280;9383;50.928;12.116;2023-06-26T00:49:09;98853.25;;;15.86;97.02
18509;BME280;9383;50.928;12.116;2023-06-26T00:51:37;98849.75;;;15.85;96.86
18509;BME280;9383;50.928;12.116;2023-06-26T00:54:05;98850.59;;;15.86;96.82
18509;BME280;9383;50.928;12.116;2023-06-26T00:56:34;98840.06;;;15.83;96.70
18509;BME280;9383;50.928;12.116;2023-06-26T00:59:04;98842.84;;;15.81;96.51
18509;BME280;9383;50.928;12.116;2023-06-26T01:01:33;98842.94;;;15.80;96.53
18509;BME280;9383;50.928;12.116;2023-06-26T01:04:02;98837.84;;;15.75;96.61
18509;BME280;9383;50.928;12.116;2023-06-26T01:06:32;98839.00;;;15.71;96.76
18509;BME280;9383;50.928;12.116;2023-06-26T01:09:04;98841.06;;;15.66;97.05
18509;BME280;9383;50.928;12.116;2023-06-26T01:11:33;98836.84;;;15.61;97.29
18509;BME280;9383;50.928;12.116;2023-06-26T01:14:00;98833.41;;;15.59;97.08
18509;BME280;9383;50.928;12.116;2023-06-26T01:16:30;98830.13;;;15.54;97.29
18509;BME280;9383;50.928;12.116;2023-06-26T01:18:57;98835.66;;;15.51;97.39
18509;BME280;9383;50.928;12.116;2023-06-26T01:21:27;98837.03;;;15.42;98.02
18509;BME280;9383;50.928;12.116;2023-06-26T01:24:09;98830.16;;;15.38;98.19
18509;BME280;9383;50.928;12.116;2023-06-26T01:26:44;98824.03;;;15.36;98.30
18509;BME280;9383;50.928;12.116;2023-06-26T01:29:13;98822.41;;;15.33;98.04
18509;BME280;9383;50.928;12.116;2023-06-26T01:31:42;98827.81;;;15.32;98.03
18509;BME280;9383;50.928;12.116;2023-06-26T01:34:12;98822.72;;;15.27;98.00
18509;BME280;9383;50.928;12.116;2023-06-26T01:36:41;98817.81;;;15.19;98.46
18509;BME280;9383;50.928;12.116;2023-06-26T01:39:07;98820.75;;;15.15;98.68
18509;BME280;9383;50.928;12.116;2023-06-26T01:41:35;98824.38;;;15.14;98.70
18509;BME280;9383;50.928;12.116;2023-06-26T01:44:21;98819.13;;;15.12;98.70
18509;BME280;9383;50.928;12.116;2023-06-26T01:47:01;98810.59;;;15.05;98.67
18509;BME280;9383;50.928;12.116;2023-06-26T01:52:41;98799.66;;;14.94;99.05
18509;BME280;9383;50.928;12.116;2023-06-26T01:55:31;98800.84;;;14.88;99.37
18509;BME280;9383;50.928;12.116;2023-06-26T01:58:03;98806.38;;;14.85;99.42
18509;BME280;9383;50.928;12.116;2023-06-26T02:00:30;98802.06;;;14.83;99.54
18509;BME280;9383;50.928;12.116;2023-06-26T02:03:00;98798.69;;;14.79;99.70
18509;BME280;9383;50.928;12.116;2023-06-26T02:05:29;98804.09;;;14.77;99.82
18509;BME280;9383;50.928;12.116;2023-06-26T02:07:59;98804.19;;;14.76;100.00
18509;BME280;9383;50.928;12.116;2023-06-26T02:10:29;98802.63;;;14.72;100.00
18509;BME280;9383;50.928;12.116;2023-06-26T02:12:57;98805.38;;;14.70;100.00
18509;BME280;9383;50.928;12.116;2023-06-26T02:15:23;98798.38;;;14.68;100.00
18509;BME280;9383;50.928;12.116;2023-06-26T02:17:50;98794.06;;;14.65;100.00
18509;BME280;9383;50.928;12.116;2023-06-26T02:20:19;98798.63;;;14.63;100.00
18509;BME280;9383;50.928;12.116;2023-06-26T02:22:48;98790.72;;;14.61;100.00
18509;BME280;9383;50.928;12.116;2023-06-26T02:25:18;98790.78;;;14.60;100.00
18509;BME280;9383;50.928;12.116;2023-06-26T02:27:52;98795.25;;;14.59;100.00
18509;BME280;9383;50.928;12.116;2023-06-26T02:30:20;98791.91;;;14.56;100.00
18509;BME280;9383;50.928;12.116;2023-06-26T02:32:49;98791.97;;;14.54;100.00
18509;BME280;9383;50.928;12.116;2023-06-26T02:35:17;98795.59;;;14.53;100.00
18509;BME280;9383;50.928;12.116;2023-06-26T02:37:46;98795.78;;;14.50;100.00
18509;BME280;9383;50.928;12.116;2023-06-26T02:40:16;98799.44;;;14.47;100.00
18509;BME280;9383;50.928;12.116;2023-06-26T02:42:43;98804.78;;;14.47;100.00
18509;BME280;9383;50.928;12.116;2023-06-26T02:45:10;98800.41;;;14.46;100.00
18509;BME280;9383;50.928;12.116;2023-06-26T02:47:37;98794.34;;;14.43;100.00
18509;BME280;9383;50.928;12.116;2023-06-26T02:50:08;98799.88;;;14.40;100.00
18509;BME280;9383;50.928;12.116;2023-06-26T02:52:35;98794.59;;;14.38;100.00
18509;BME280;9383;50.928;12.116;2023-06-26T02:55:04;98791.16;;;14.36;100.00
18509;BME280;9383;50.928;12.116;2023-06-26T02:57:33;98793.06;;;14.34;100.00
18509;BME280;9383;50.928;12.116;2023-06-26T03:00:00;98792.19;;;14.33;100.00
18509;BME280;9383;50.928;12.116;2023-06-26T03:02:27;98785.13;;;14.32;100.00
18509;BME280;9383;50.928;12.116;2023-06-26T03:04:56;98788.84;;;14.30;100.00
18509;BME280;9383;50.928;12.116;2023-06-26T03:07:26;98787.13;;;14.29;100.00
18509;BME280;9383;50.928;12.116;2023-06-26T03:09:53;98782.78;;;14.26;100.00
18509;BME280;9383;50.928;12.116;2023-06-26T03:12:20;98780.19;;;14.25;100.00
18509;BME280;9383;50.928;12.116;2023-06-26T03:14:49;98783.81;;;14.24;100.00
18509;BME280;9383;50.928;12.116;2023-06-26T03:17:18;98776.75;;;14.23;100.00
18509;BME280;9383;50.928;12.116;2023-06-26T03:19:46;98775.03;;;14.21;100.00
18509;BME280;9383;50.928;12.116;2023-06-26T03:22:16;98778.56;;;14.22;100.00
18509;BME280;9383;50.928;12.116;2023-06-26T03:24:44;98783.03;;;14.21;100.00
18509;BME280;9383;50.928;12.116;2023-06-26T03:27:14;98776.94;;;14.19;100.00
18509;BME280;9383;50.928;12.116;2023-06-26T03:29:44;98777.00;;;14.18;100.00
18509;BME280;9383;50.928;12.116;2023-06-26T03:32:13;98774.31;;;14.18;100.00
18509;BME280;9383;50.928;12.116;2023-06-26T03:34:40;98776.16;;;14.17;100.00
18509;BME280;9383;50.928;12.116;2023-06-26T03:37:07;98772.53;;;14.18;100.00
18509;BME280;9383;50.928;12.116;2023-06-26T03:39:34;98766.25;;;14.19;100.00
18509;BME280;9383;50.928;12.116;2023-06-26T03:42:04;98770.72;;;14.19;100.00
18509;BME280;9383;50.928;12.116;2023-06-26T03:44:33;98768.81;;;14.21;100.00
18509;BME280;9383;50.928;12.116;2023-06-26T03:47:00;98766.09;;;14.23;100.00
18509;BME280;9383;50.928;12.116;2023-06-26T03:49:29;98764.19;;;14.25;100.00
18509;BME280;9383;50.928;12.116;2023-06-26T03:51:58;98763.19;;;14.27;100.00
18509;BME280;9383;50.928;12.116;2023-06-26T03:54:26;98765.78;;;14.29;100.00
18509;BME280;9383;50.928;12.116;2023-06-26T03:56:55;98760.28;;;14.32;100.00
18509;BME280;9383;50.928;12.116;2023-06-26T03:59:25;98760.09;;;14.35;100.00
18509;BME280;9383;50.928;12.116;2023-06-26T04:01:54;98759.94;;;14.38;100.00
18509;BME280;9383;50.928;12.116;2023-06-26T04:04:23;98757.97;;;14.42;100.00
18509;BME280;9383;50.928;12.116;2023-06-26T04:06:52;98762.19;;;14.46;100.00
18509;BME280;9383;50.928;12.116;2023-06-26T04:09:20;98764.59;;;14.51;100.00
18509;BME280;9383;50.928;12.116;2023-06-26T04:11:49;98759.03;;;14.55;100.00
18509;BME280;9383;50.928;12.116;2023-06-26T04:14:18;98751.72;;;14.59;100.00
18509;BME280;9383;50.928;12.116;2023-06-26T04:16:47;98759.38;;;14.65;100.00
18509;BME280;9383;50.928;12.116;2023-06-26T04:19:15;98754.66;;;14.70;100.00
18509;BME280;9383;50.928;12.116;2023-06-26T04:21:44;98749.88;;;14.77;100.00
18509;BME280;9383;50.928;12.116;2023-06-26T04:24:14;98753.06;;;14.84;100.00
18509;BME280;9383;50.928;12.116;2023-06-26T04:26:43;98757.09;;;14.91;100.00
18509;BME280;9383;50.928;12.116;2023-06-26T04:29:15;98748.69;;;14.99;100.00
18509;BME280;9383;50.928;12.116;2023-06-26T04:31:43;98754.53;;;15.05;100.00
18509;BME280;9383;50.928;12.116;2023-06-26T04:34:15;98750.56;;;15.13;100.00
18509;BME280;9383;50.928;12.116;2023-06-26T04:36:44;98741.25;;;15.20;100.00
18509;BME280;9383;50.928;12.116;2023-06-26T04:39:17;98747.88;;;15.29;100.00
18509;BME280;9383;50.928;12.116;2023-06-26T04:41:46;98741.13;;;15.38;100.00
18509;BME280;9383;50.928;12.116;2023-06-26T04:44:15;98737.75;;;15.50;100.00
18509;BME280;9383;50.928;12.116;2023-06-26T04:46:43;98740.31;;;15.68;100.00
18509;BME280;9383;50.928;12.116;2023-06-26T04:49:13;98738.16;;;15.89;100.00
18509;BME280;9383;50.928;12.116;2023-06-26T04:51:46;98736.56;;;16.01;100.00
18509;BME280;9383;50.928;12.116;2023-06-26T04:54:16;98734.09;;;16.12;100.00
18509;BME280;9383;50.928;12.116;2023-06-26T04:56:43;98739.47;;;16.27;100.00
18509;BME280;9383;50.928;12.116;2023-06-26T04:59:10;98731.44;;;16.41;100.00
18509;BME280;9383;50.928;12.116;2023-06-26T05:01:40;98731.31;;;16.57;100.00
18509;BME280;9383;50.928;12.116;2023-06-26T05:04:12;98731.31;;;16.72;100.00
18509;BME280;9383;50.928;12.116;2023-06-26T05:06:40;98729.47;;;16.87;100.00
18509;BME280;9383;50.928;12.116;2023-06-26T05:09:09;98728.50;;;17.02;100.00
18509;BME280;9383;50.928;12.116;2023-06-26T05:11:47;98723.00;;;17.19;100.00
18509;BME280;9383;50.928;12.116;2023-06-26T05:14:22;98726.19;;;17.38;100.00
18509;BME280;9383;50.928;12.116;2023-06-26T05:16:50;98721.28;;;17.58;100.00
18509;BME280;9383;50.928;12.116;2023-06-26T05:19:19;98716.50;;;17.76;100.00
18509;BME280;9383;50.928;12.116;2023-06-26T05:21:46;98713.72;;;17.91;100.00
18509;BME280;9383;50.928;12.116;2023-06-26T05:24:16;98713.47;;;18.08;100.00
18509;BME280;9383;50.928;12.116;2023-06-26T05:26:43;98716.88;;;18.23;100.00
18509;BME280;9383;50.928;12.116;2023-06-26T05:29:12;98714.06;;;18.38;100.00
18509;BME280;9383;50.928;12.116;2023-06-26T05:31:42;98715.03;;;18.50;100.00
18509;BME280;9383;50.928;12.116;2023-06-26T05:34:14;98720.34;;;18.63;100.00
18509;BME280;9383;50.928;12.116;2023-06-26T05:36:44;98716.78;;;18.75;100.00
18509;BME280;9383;50.928;12.116;2023-06-26T05:39:16;98714.91;;;18.89;99.56
18509;BME280;9383;50.928;12.116;2023-06-26T05:41:46;98715.66;;;19.04;98.76
18509;BME280;9383;50.928;12.116;2023-06-26T05:44:13;98717.34;;;19.18;97.09
18509;BME280;9383;50.928;12.116;2023-06-26T05:46:43;98709.19;;;19.31;93.41
18509;BME280;9383;50.928;12.116;2023-06-26T05:49:12;98710.84;;;19.45;92.95
18509;BME280;9383;50.928;12.116;2023-06-26T05:51:40;98701.00;;;19.57;92.33
18509;BME280;9383;50.928;12.116;2023-06-26T05:54:10;98701.75;;;19.70;90.07
18509;BME280;9383;50.928;12.116;2023-06-26T05:56:42;98707.91;;;19.83;88.64
18509;BME280;9383;50.928;12.116;2023-06-26T05:59:11;98708.69;;;19.97;88.42
18509;BME280;9383;50.928;12.116;2023-06-26T06:01:40;98709.47;;;20.10;86.93
18509;BME280;9383;50.928;12.116;2023-06-26T06:04:09;98708.50;;;20.23;84.66
18509;BME280;9383;50.928;12.116;2023-06-26T06:06:36;98709.25;;;20.36;85.03
18509;BME280;9383;50.928;12.116;2023-06-26T06:09:03;98704.72;;;20.48;84.88
18509;BME280;9383;50.928;12.116;2023-06-26T06:11:30;98709.09;;;20.61;84.90
18509;BME280;9383;50.928;12.116;2023-06-26T06:13:59;98707.03;;;20.76;83.85
18509;BME280;9383;50.928;12.116;2023-06-26T06:16:27;98702.38;;;20.89;84.25
18509;BME280;9383;50.928;12.116;2023-06-26T06:18:58;98705.78;;;21.03;81.60
18509;BME280;9383;50.928;12.116;2023-06-26T06:21:27;98697.38;;;21.17;81.14
18509;BME280;9383;50.928;12.116;2023-06-26T06:23:56;98696.47;;;21.28;79.83
18509;BME280;9383;50.928;12.116;2023-06-26T06:26:25;98691.91;;;21.40;80.38
18509;BME280;9383;50.928;12.116;2023-06-26T06:28:53;98691.88;;;21.52;79.05
18509;BME280;9383;50.928;12.116;2023-06-26T06:31:22;98694.28;;;21.66;79.51
18509;BME280;9383;50.928;12.116;2023-06-26T06:33:48;98694.22;;;21.77;79.79
18509;BME280;9383;50.928;12.116;2023-06-26T06:36:18;98688.75;;;21.89;78.10
18509;BME280;9383;50.928;12.116;2023-06-26T06:38:47;98693.94;;;22.02;78.44
18509;BME280;9383;50.928;12.116;2023-06-26T06:41:16;98695.72;;;22.13;76.73
18509;BME280;9383;50.928;12.116;2023-06-26T06:43:51;98685.78;;;22.23;73.91
18509;BME280;9383;50.928;12.116;2023-06-26T06:46:20;98685.84;;;22.33;74.68
18509;BME280;9383;50.928;12.116;2023-06-26T06:48:48;98682.31;;;22.42;74.54
18509;BME280;9383;50.928;12.116;2023-06-26T06:51:26;98683.25;;;22.53;73.36
18509;BME280;9383;50.928;12.116;2023-06-26T06:53:54;98692.38;;;22.61;73.29
18509;BME280;9383;50.928;12.116;2023-06-26T06:56:21;98678.03;;;22.71;72.73
18509;BME280;9383;50.928;12.116;2023-06-26T06:58:47;98678.91;;;22.81;71.63
18509;BME280;9383;50.928;12.116;2023-06-26T07:01:15;98687.03;;;22.91;71.99
18509;BME280;9383;50.928;12.116;2023-06-26T07:03:41;98677.22;;;23.00;69.85
18509;BME280;9383;50.928;12.116;2023-06-26T07:06:09;98678.81;;;23.12;71.44
18509;BME280;9383;50.928;12.116;2023-06-26T07:08:37;98683.88;;;23.27;71.82
18509;BME280;9383;50.928;12.116;2023-06-26T07:11:04;98676.31;;;23.40;71.92
18509;BME280;9383;50.928;12.116;2023-06-26T07:13:31;98670.47;;;23.55;71.01
18509;BME280;9383;50.928;12.116;2023-06-26T07:15:57;98670.16;;;23.68;70.55
18509;BME280;9383;50.928;12.116;2023-06-26T07:18:24;98669.56;;;23.84;71.09
18509;BME280;9383;50.928;12.116;2023-06-26T07:20:51;98661.13;;;23.97;68.88
18509;BME280;9383;50.928;12.116;2023-06-26T07:23:17;98664.41;;;24.10;69.73
18509;BME280;9383;50.928;12.116;2023-06-26T07:25:44;98665.63;;;24.26;68.99
18509;BME280;9383;50.928;12.116;2023-06-26T07:28:11;98666.00;;;24.41;68.91
18509;BME280;9383;50.928;12.116;2023-06-26T07:30:39;98662.63;;;24.57;68.69
18509;BME280;9383;50.928;12.116;2023-06-26T07:33:06;98667.25;;;24.75;68.86
18509;BME280;9383;50.928;12.116;2023-06-26T07:35:32;98655.78;;;24.91;68.54
18509;BME280;9383;50.928;12.116;2023-06-26T07:38:01;98657.63;;;25.08;67.98
18509;BME280;9383;50.928;12.116;2023-06-26T07:40:29;98661.19;;;25.27;67.68
18509;BME280;9383;50.928;12.116;2023-06-26T07:42:55;98655.53;;;25.38;66.03
18509;BME280;9383;50.928;12.116;2023-06-26T07:45:24;98646.16;;;25.51;63.87
18509;BME280;9383;50.928;12.116;2023-06-26T07:47:51;98641.03;;;25.66;64.13
18509;BME280;9383;50.928;12.116;2023-06-26T07:50:18;98642.31;;;25.80;63.12
18509;BME280;9383;50.928;12.116;2023-06-26T07:52:48;98642.22;;;25.90;60.36
18509;BME280;9383;50.928;12.116;2023-06-26T07:55:14;98635.63;;;26.01;60.75
18509;BME280;9383;50.928;12.116;2023-06-26T07:57:41;98639.44;;;26.16;61.61
18509;BME280;9383;50.928;12.116;2023-06-26T08:00:08;98639.91;;;26.30;59.66
18509;BME280;9383;50.928;12.116;2023-06-26T08:02:34;98635.38;;;26.47;59.28
18509;BME280;9383;50.928;12.116;2023-06-26T08:05:01;98642.94;;;26.61;59.06
18509;BME280;9383;50.928;12.116;2023-06-26T08:07:28;98633.78;;;26.79;59.02
18509;BME280;9383;50.928;12.116;2023-06-26T08:09:56;98628.06;;;26.99;58.51
18509;BME280;9383;50.928;12.116;2023-06-26T08:12:22;98633.91;;;27.12;55.67
18509;BME280;9383;50.928;12.116;2023-06-26T08:14:49;98624.19;;;27.26;54.87
18509;BME280;9383;50.928;12.116;2023-06-26T08:17:15;98622.50;;;27.42;55.33
18509;BME280;9383;50.928;12.116;2023-06-26T08:19:45;98617.91;;;27.59;54.43
18509;BME280;9383;50.928;12.116;2023-06-26T08:22:11;98622.00;;;27.71;50.47
18509;BME280;9383;50.928;12.116;2023-06-26T08:24:38;98617.72;;;27.85;50.54
18509;BME280;9383;50.928;12.116;2023-06-26T08:27:05;98621.44;;;27.92;47.45
18509;BME280;9383;50.928;12.116;2023-06-26T08:29:33;98618.19;;;28.05;49.79
18509;BME280;9383;50.928;12.116;2023-06-26T08:32:00;98619.38;;;28.19;50.35
18509;BME280;9383;50.928;12.116;2023-06-26T08:34:28;98621.34;;;28.34;49.10
18509;BME280;9383;50.928;12.116;2023-06-26T08:36:56;98620.59;;;28.48;48.92
18509;BME280;9383;50.928;12.116;2023-06-26T08:39:22;98616.13;;;28.56;45.10
18509;BME280;9383;50.928;12.116;2023-06-26T08:41:49;98621.41;;;28.57;43.87
18509;BME280;9383;50.928;12.116;2023-06-26T08:44:16;98617.78;;;28.65;44.68
18509;BME280;9383;50.928;12.116;2023-06-26T08:46:43;98616.00;;;28.81;46.40
18509;BME280;9383;50.928;12.116;2023-06-26T08:49:28;98610.66;;;28.96;45.53
18509;BME280;9383;50.928;12.116;2023-06-26T08:52:00;98612.66;;;29.02;42.16
18509;BME280;9383;50.928;12.116;2023-06-26T08:54:33;98611.50;;;29.19;43.65
18509;BME280;9383;50.928;12.116;2023-06-26T08:57:01;98607.25;;;29.40;44.06
18509;BME280;9383;50.928;12.116;2023-06-26T08:59:28;98605.22;;;29.57;41.72
18509;BME280;9383;50.928;12.116;2023-06-26T09:01:54;98608.53;;;29.68;40.39
18509;BME280;9383;50.928;12.116;2023-06-26T09:04:21;98609.13;;;29.78;41.25
18509;BME280;9383;50.928;12.116;2023-06-26T09:06:48;98607.81;;;29.89;41.03
18509;BME280;9383;50.928;12.116;2023-06-26T09:09:15;98604.94;;;30.06;42.11
18509;BME280;9383;50.928;12.116;2023-06-26T09:11:41;98611.16;;;30.14;38.08
18509;BME280;9383;50.928;12.116;2023-06-26T09:14:08;98603.22;;;30.20;38.23
18509;BME280;9383;50.928;12.116;2023-06-26T09:16:40;98601.19;;;30.22;36.90
18509;BME280;9383;50.928;12.116;2023-06-26T09:19:12;98598.88;;;30.25;36.55
18509;BME280;9383;50.928;12.116;2023-06-26T09:21:40;98597.56;;;30.36;36.33
18509;BME280;9383;50.928;12.116;2023-06-26T09:24:08;98592.03;;;30.29;33.70
18509;BME280;9383;50.928;12.116;2023-06-26T09:26:39;98591.72;;;30.39;35.25
18509;BME280;9383;50.928;12.116;2023-06-26T09:29:07;98595.25;;;30.55;36.22
18509;BME280;9383;50.928;12.116;2023-06-26T09:31:36;98583.75;;;30.74;37.18
18509;BME280;9383;50.928;12.116;2023-06-26T09:34:03;98585.19;;;30.92;37.22
18509;BME280;9383;50.928;12.116;2023-06-26T09:36:31;98586.63;;;31.10;37.44
18509;BME280;9383;50.928;12.116;2023-06-26T09:39:03;98589.13;;;31.26;36.30
18509;BME280;9383;50.928;12.116;2023-06-26T09:41:37;98588.97;;;31.35;35.65
18509;BME280;9383;50.928;12.116;2023-06-26T09:44:07;98584.41;;;31.42;33.78
18509;BME280;9383;50.928;12.116;2023-06-26T09:46:38;98578.78;;;31.50;34.42
18509;BME280;9383;50.928;12.116;2023-06-26T09:51:34;98575.97;;;31.72;34.36
18509;BME280;9383;50.928;12.116;2023-06-26T09:54:01;98578.44;;;31.89;34.52
18509;BME280;9383;50.928;12.116;2023-06-26T09:56:29;98577.19;;;31.91;32.02
18509;BME280;9383;50.928;12.116;2023-06-26T09:58:58;98570.31;;;32.02;33.04
18509;BME280;9383;50.928;12.116;2023-06-26T10:01:26;98568.69;;;32.14;33.49
18509;BME280;9383;50.928;12.116;2023-06-26T10:03:54;98570.84;;;32.26;33.51
18509;BME280;9383;50.928;12.116;2023-06-26T10:06:37;98568.13;;;32.33;31.61
18509;BME280;9383;50.928;12.116;2023-06-26T10:09:05;98565.34;;;32.26;29.92
18509;BME280;9383;50.928;12.116;2023-06-26T10:11:46;98562.91;;;32.03;30.27
18509;BME280;9383;50.928;12.116;2023-06-26T10:14:14;98560.13;;;31.96;30.44
18509;BME280;9383;50.928;12.116;2023-06-26T10:16:42;98561.31;;;31.80;28.94
18509;BME280;9383;50.928;12.116;2023-06-26T10:19:11;98563.34;;;31.78;29.99
18509;BME280;9383;50.928;12.116;2023-06-26T10:21:40;98552.06;;;31.81;30.90
18509;BME280;9383;50.928;12.116;2023-06-26T10:24:08;98547.66;;;31.87;32.47
18509;BME280;9383;50.928;12.116;2023-06-26T10:26:41;98542.22;;;31.93;31.43
18509;BME280;9383;50.928;12.116;2023-06-26T10:29:08;98547.50;;;32.02;31.73
18509;BME280;9383;50.928;12.116;2023-06-26T10:31:36;98545.84;;;32.07;31.21
18509;BME280;9383;50.928;12.116;2023-06-26T10:34:04;98549.44;;;32.08;31.24
18509;BME280;9383;50.928;12.116;2023-06-26T10:36:31;98541.88;;;32.10;30.80
18509;BME280;9383;50.928;12.116;2023-06-26T10:39:01;98543.78;;;32.16;30.53
18509;BME280;9383;50.928;12.116;2023-06-26T10:41:37;98535.28;;;32.04;30.48
18509;BME280;9383;50.928;12.116;2023-06-26T10:44:07;98544.69;;;31.88;31.48
18509;BME280;9383;50.928;12.116;2023-06-26T10:46:49;98550.03;;;31.96;32.11
18509;BME280;9383;50.928;12.116;2023-06-26T10:49:24;98543.53;;;32.04;31.11
18509;BME280;9383;50.928;12.116;2023-06-26T10:52:02;98537.63;;;32.07;31.68
18509;BME280;9383;50.928;12.116;2023-06-26T10:54:34;98541.66;;;32.11;31.51
18509;BME280;9383;50.928;12.116;2023-06-26T10:57:02;98538.19;;;31.96;31.72
18509;BME280;9383;50.928;12.116;2023-06-26T10:59:30;98529.94;;;31.89;31.24
18509;BME280;9383;50.928;12.116;2023-06-26T11:02:01;98528.09;;;31.96;31.51
18509;BME280;9383;50.928;12.116;2023-06-26T11:04:43;98512.91;;;32.00;32.43
18509;BME280;9383;50.928;12.116;2023-06-26T11:07:22;98520.97;;;32.09;32.24
18509;BME280;9383;50.928;12.116;2023-06-26T11:09:56;98521.44;;;32.19;31.75
18509;BME280;9383;50.928;12.116;2023-06-26T11:12:43;98514.09;;;32.33;31.43
18509;BME280;9383;50.928;12.116;2023-06-26T11:15:12;98503.19;;;32.40;31.14
18509;BME280;9383;50.928;12.116;2023-06-26T11:17:40;98497.31;;;32.43;31.47
18509;BME280;9383;50.928;12.116;2023-06-26T11:20:11;98502.56;;;32.45;30.55
18509;BME280;9383;50.928;12.116;2023-06-26T11:22:40;98498.59;;;32.54;30.74
18509;BME280;9383;50.928;12.116;2023-06-26T11:25:08;98491.41;;;32.60;31.16
18509;BME280;9383;50.928;12.116;2023-06-26T11:27:43;98495.00;;;32.74;31.31
18509;BME280;9383;50.928;12.116;2023-06-26T11:30:23;98491.03;;;32.90;31.47
18509;BME280;9383;50.928;12.116;2023-06-26T11:32:50;98481.34;;;33.01;31.10
18509;BME280;9383;50.928;12.116;2023-06-26T11:35:26;98490.66;;;33.13;31.96
18509;BME280;9383;50.928;12.116;2023-06-26T11:38:03;98487.66;;;33.15;31.81
18509;BME280;9383;50.928;12.116;2023-06-26T11:40:34;98486.84;;;33.01;31.99
18509;BME280;9383;50.928;12.116;2023-06-26T11:43:03;98489.16;;;32.90;32.53
18509;BME280;9383;50.928;12.116;2023-06-26T11:45:31;98487.25;;;32.91;32.50
18509;BME280;9383;50.928;12.116;2023-06-26T11:47:59;98480.50;;;32.93;33.15
18509;BME280;9383;50.928;12.116;2023-06-26T11:50:27;98484.50;;;32.97;33.20
18509;BME280;9383;50.928;12.116;2023-06-26T11:52:55;98480.06;;;32.96;32.24
18509;BME280;9383;50.928;12.116;2023-06-26T11:55:23;98480.94;;;32.90;31.66
18509;BME280;9383;50.928;12.116;2023-06-26T11:57:54;98480.88;;;32.83;31.13
18509;BME280;9383;50.928;12.116;2023-06-26T12:00:22;98443.19;;;32.30;31.52
18509;BME280;9383;50.928;12.116;2023-06-26T12:02:49;98481.91;;;32.49;32.25
18509;BME280;9383;50.928;12.116;2023-06-26T12:05:17;98481.47;;;32.52;32.37
18509;BME280;9383;50.928;12.116;2023-06-26T12:07:46;98476.22;;;32.57;32.03
18509;BME280;9383;50.928;12.116;2023-06-26T12:10:14;98476.44;;;32.55;32.95
18509;BME280;9383;50.928;12.116;2023-06-26T12:12:42;98478.50;;;32.47;33.21
18509;BME280;9383;50.928;12.116;2023-06-26T12:15:13;98482.94;;;32.48;33.33
18509;BME280;9383;50.928;12.116;2023-06-26T12:17:40;98483.28;;;32.31;31.99
18509;BME280;9383;50.928;12.116;2023-06-26T12:20:21;98476.44;;;32.00;32.92
18509;BME280;9383;50.928;12.116;2023-06-26T12:22:48;98469.97;;;31.72;33.23
18509;BME280;9383;50.928;12.116;2023-06-26T12:25:15;98477.03;;;31.53;33.82
18509;BME280;9383;50.928;12.116;2023-06-26T12:27:45;98473.16;;;31.41;34.21
18509;BME280;9383;50.928;12.116;2023-06-26T12:30:12;98480.72;;;31.39;34.82
18509;BME280;9383;50.928;12.116;2023-06-26T12:32:39;98474.44;;;31.45;35.31
18509;BME280;9383;50.928;12.116;2023-06-26T12:35:07;98475.56;;;31.57;35.10
18509;BME280;9383;50.928;12.116;2023-06-26T12:37:38;98470.56;;;31.68;34.82
18509;BME280;9383;50.928;12.116;2023-06-26T12:40:19;98472.03;;;31.64;33.76
18509;BME280;9383;50.928;12.116;2023-06-26T12:42:48;98468.13;;;31.44;34.43
18509;BME280;9383;50.928;12.116;2023-06-26T12:45:15;98459.47;;;31.41;35.44
18509;BME280;9383;50.928;12.116;2023-06-26T12:47:42;98461.19;;;31.49;35.89
18509;BME280;9383;50.928;12.116;2023-06-26T12:50:08;98452.78;;;31.50;36.03
18509;BME280;9383;50.928;12.116;2023-06-26T12:52:36;98448.69;;;31.39;34.90
18509;BME280;9383;50.928;12.116;2023-06-26T12:55:04;98451.97;;;31.28;34.35
18509;BME280;9383;50.928;12.116;2023-06-26T12:57:31;98446.91;;;31.25;34.71
18509;BME280;9383;50.928;12.116;2023-06-26T12:59:58;98449.06;;;31.29;34.78
18509;BME280;9383;50.928;12.116;2023-06-26T13:02:27;98444.88;;;31.34;34.76
18509;BME280;9383;50.928;12.116;2023-06-26T13:04:54;98447.88;;;31.39;34.49
18509;BME280;9383;50.928;12.116;2023-06-26T13:07:20;98446.00;;;31.46;35.46
18509;BME280;9383;50.928;12.116;2023-06-26T13:09:47;98444.06;;;31.40;34.11
18509;BME280;9383;50.928;12.116;2023-06-26T13:12:14;98436.00;;;31.32;34.88
18509;BME280;9383;50.928;12.116;2023-06-26T13:14:41;98432.22;;;31.33;35.19